createdAt,value
2023-02-03T00:01:15.059Z,4.80
2023-02-03T00:03:52.133Z,4.80
2023-02-03T00:06:29.598Z,4.70
2023-02-03T00:09:07.193Z,4.70
2023-02-03T00:11:43.640Z,4.70
2023-02-03T00:14:19.554Z,4.74
2023-02-03T00:16:56.254Z,4.80
2023-02-03T00:19:35.771Z,4.80
2023-02-03T00:22:12.132Z,4.90
2023-02-03T00:24:49.521Z,4.90
2023-02-03T00:27:27.111Z,4.90
2023-02-03T00:30:02.930Z,4.90
2023-02-03T00:32:39.242Z,4.80
2023-02-03T00:35:17.303Z,4.80
2023-02-03T00:37:58.522Z,4.70
2023-02-03T00:40:35.491Z,4.70
2023-02-03T00:43:12.076Z,4.70
2023-02-03T00:45:48.260Z,4.70
2023-02-03T00:48:25.050Z,4.60
2023-02-03T00:51:01.591Z,4.50
2023-02-03T00:53:37.549Z,4.30
2023-02-03T00:56:14.947Z,4.20
2023-02-03T00:58:50.789Z,4.20
2023-02-03T01:01:26.829Z,4.06
2023-02-03T01:04:04.753Z,3.90
2023-02-03T01:06:43.585Z,3.90
2023-02-03T01:09:19.596Z,3.90
2023-02-03T01:11:56.063Z,3.90
2023-02-03T01:14:32.663Z,3.92
2023-02-03T01:17:08.824Z,4.00
2023-02-03T01:19:44.975Z,4.10
2023-02-03T01:22:22.011Z,4.20
2023-02-03T01:24:59.076Z,4.26
2023-02-03T01:27:36.861Z,4.34
2023-02-03T01:30:20.070Z,4.40
2023-02-03T01:32:56.500Z,4.40
2023-02-03T01:35:32.444Z,4.40
2023-02-03T01:38:09.083Z,4.40
2023-02-03T01:40:51.953Z,4.30
2023-02-03T01:43:40.391Z,4.20
2023-02-03T01:46:37.356Z,4.20
2023-02-03T01:49:20.741Z,4.16
2023-02-03T01:51:58.569Z,4.10
2023-02-03T01:54:40.896Z,4.10
2023-02-03T01:57:23.146Z,4.10
2023-02-03T02:00:05.515Z,4.10
2023-02-03T02:02:52.578Z,4.12
2023-02-03T02:05:40.676Z,4.18
2023-02-03T02:08:18.521Z,4.20
2023-02-03T02:10:55.765Z,4.20
2023-02-03T02:13:35.435Z,4.20
2023-02-03T02:16:22.251Z,4.20
2023-02-03T02:19:43.934Z,4.30
2023-02-03T02:22:33.214Z,4.30
2023-02-03T02:26:03.918Z,4.30
2023-02-03T02:29:38.910Z,4.30
2023-02-03T02:32:26.239Z,4.28
2023-02-03T02:35:19.011Z,4.26
2023-02-03T02:38:05.955Z,4.20
2023-02-03T02:40:53.768Z,4.20
2023-02-03T02:43:39.161Z,4.20
2023-02-03T02:46:21.611Z,4.18
2023-02-03T02:49:04.664Z,4.10
2023-02-03T02:51:42.156Z,4.10
2023-02-03T02:54:24.616Z,4.10
2023-02-03T02:57:06.184Z,4.00
2023-02-03T02:59:42.738Z,4.00
2023-02-03T03:02:19.767Z,4.00
2023-02-03T03:04:57.626Z,3.90
2023-02-03T03:07:38.234Z,3.90
2023-02-03T03:10:25.145Z,3.90
2023-02-03T03:13:06.497Z,3.90
2023-02-03T03:15:47.052Z,3.90
2023-02-03T03:18:31.363Z,3.90
2023-02-03T03:21:10.965Z,3.90
2023-02-03T03:23:53.735Z,3.90
2023-02-03T03:26:38.755Z,3.90
2023-02-03T03:29:24.374Z,3.90
2023-02-03T03:32:02.374Z,3.90
2023-02-03T03:34:40.627Z,3.92
2023-02-03T03:37:26.899Z,4.00
2023-02-03T03:40:10.766Z,4.10
2023-02-03T03:42:52.778Z,4.20
2023-02-03T03:45:41.277Z,4.28
2023-02-03T03:48:24.728Z,4.30
2023-02-03T03:51:09.053Z,4.28
2023-02-03T03:53:50.335Z,4.20
2023-02-03T03:56:34.638Z,4.20
2023-02-03T03:59:15.164Z,4.10
2023-02-03T04:01:51.618Z,4.10
2023-02-03T04:04:29.574Z,4.00
2023-02-03T04:07:05.802Z,3.90
2023-02-03T04:09:43.492Z,3.70
2023-02-03T04:12:29.070Z,3.70
2023-02-03T04:15:06.833Z,3.70
2023-02-03T04:17:43.547Z,3.70
2023-02-03T04:20:22.693Z,3.70
2023-02-03T04:22:59.904Z,3.80
2023-02-03T04:25:36.182Z,4.00
2023-02-03T04:28:12.647Z,4.10
2023-02-03T04:30:49.703Z,4.20
2023-02-03T04:33:26.089Z,4.30
2023-02-03T04:36:02.428Z,4.30
2023-02-03T04:38:38.681Z,4.30
2023-02-03T04:41:15.560Z,4.20
2023-02-03T04:43:53.011Z,4.20
2023-02-03T04:46:29.664Z,4.10
2023-02-03T04:49:05.941Z,4.06
2023-02-03T04:51:43.431Z,3.94
2023-02-03T04:54:20.073Z,3.90
2023-02-03T04:56:57.399Z,3.90
2023-02-03T04:59:34.467Z,3.90
2023-02-03T05:02:12.167Z,3.90
2023-02-03T05:04:49.233Z,3.96
2023-02-03T05:07:25.339Z,4.00
2023-02-03T05:10:02.258Z,4.00
2023-02-03T05:12:39.016Z,4.00
2023-02-03T05:15:19.047Z,4.00
2023-02-03T05:17:57.435Z,4.00
2023-02-03T05:20:34.393Z,4.00
2023-02-03T05:23:11.073Z,4.04
2023-02-03T05:25:48.379Z,4.10
2023-02-03T05:28:24.354Z,4.10
2023-02-03T05:31:02.441Z,4.22
2023-02-03T05:33:37.963Z,4.30
2023-02-03T05:36:19.063Z,4.38
2023-02-03T05:38:55.685Z,4.40
2023-02-03T05:41:49.400Z,4.50
2023-02-03T05:44:28.139Z,4.50
2023-02-03T05:47:05.873Z,4.42
2023-02-03T05:49:43.622Z,4.30
2023-02-03T05:52:20.079Z,4.20
2023-02-03T05:54:56.740Z,4.02
2023-02-03T05:57:34.093Z,3.94
2023-02-03T06:00:17.802Z,3.90
2023-02-03T06:03:00.807Z,3.72
2023-02-03T06:05:41.524Z,3.60
2023-02-03T06:08:18.942Z,3.30
2023-02-03T06:10:55.152Z,3.10
2023-02-03T06:13:31.901Z,3.00
2023-02-03T06:16:09.565Z,2.90
2023-02-03T06:18:46.434Z,2.70
2023-02-03T06:21:24.324Z,2.60
2023-02-03T06:24:00.744Z,2.60
2023-02-03T06:26:36.937Z,2.60
2023-02-03T06:29:13.460Z,2.60
2023-02-03T06:31:50.960Z,2.60
2023-02-03T06:34:28.244Z,2.60
2023-02-03T06:37:04.921Z,2.70
2023-02-03T06:39:42.514Z,2.78
2023-02-03T06:42:19.289Z,2.80
2023-02-03T06:44:56.348Z,2.90
2023-02-03T06:47:33.089Z,3.00
2023-02-03T06:50:10.947Z,3.00
2023-02-03T06:52:48.588Z,3.00
2023-02-03T06:55:25.357Z,3.00
2023-02-03T06:58:01.560Z,3.02
2023-02-03T07:00:37.767Z,3.12
2023-02-03T07:03:14.148Z,3.20
2023-02-03T07:05:50.485Z,3.30
2023-02-03T07:08:27.429Z,3.30
2023-02-03T07:11:03.683Z,3.32
2023-02-03T07:13:41.492Z,3.40
2023-02-03T07:16:18.472Z,3.40
2023-02-03T07:18:56.155Z,3.40
2023-02-03T07:21:32.770Z,3.50
2023-02-03T07:24:10.925Z,3.60
2023-02-03T07:26:47.344Z,3.70
2023-02-03T07:29:24.115Z,3.80
2023-02-03T07:32:03.087Z,3.80
2023-02-03T07:34:39.990Z,3.90
2023-02-03T07:37:17.245Z,3.90
2023-02-03T07:39:55.145Z,4.00
2023-02-03T07:42:32.748Z,4.10
2023-02-03T07:45:13.112Z,4.10
2023-02-03T07:47:50.886Z,4.16
2023-02-03T07:50:28.342Z,4.20
2023-02-03T07:53:04.721Z,4.12
2023-02-03T07:55:42.851Z,4.10
2023-02-03T07:58:20.068Z,4.10
2023-02-03T08:00:57.295Z,4.20
2023-02-03T08:03:33.750Z,4.20
2023-02-03T08:06:11.859Z,4.20
2023-02-03T08:08:48.413Z,4.30
2023-02-03T08:11:26.226Z,4.30
2023-02-03T08:14:03.720Z,4.30
2023-02-03T08:16:41.008Z,4.40
2023-02-03T08:19:18.093Z,4.44
2023-02-03T08:21:54.503Z,4.50
2023-02-03T08:24:31.108Z,4.50
2023-02-03T08:27:08.581Z,4.60
2023-02-03T08:29:46.177Z,4.60
2023-02-03T08:32:25.891Z,4.62
2023-02-03T08:35:02.586Z,4.70
2023-02-03T08:37:39.484Z,4.80
2023-02-03T08:40:19.113Z,4.80
2023-02-03T08:42:54.986Z,4.90
2023-02-03T08:45:32.558Z,5.00
2023-02-03T08:48:09.631Z,5.02
2023-02-03T08:50:53.206Z,5.10
2023-02-03T08:53:29.881Z,5.10
2023-02-03T08:56:10.571Z,5.08
2023-02-03T08:58:47.876Z,5.10
2023-02-03T09:01:25.389Z,5.30
2023-02-03T09:04:04.413Z,5.40
2023-02-03T09:06:40.355Z,5.60
2023-02-03T09:09:18.235Z,5.70
2023-02-03T09:12:00.947Z,5.80
2023-02-03T09:14:39.016Z,5.90
2023-02-03T09:17:15.269Z,6.00
2023-02-03T09:19:51.884Z,6.10
2023-02-03T09:22:29.265Z,6.20
2023-02-03T09:25:05.303Z,6.30
2023-02-03T09:27:42.814Z,6.40
2023-02-03T09:30:24.801Z,6.40
2023-02-03T09:33:01.913Z,6.50
2023-02-03T09:35:38.575Z,6.60
2023-02-03T09:38:15.909Z,6.70
2023-02-03T09:41:10.624Z,6.90
2023-02-03T09:43:55.335Z,7.00
2023-02-03T09:46:39.012Z,7.10
2023-02-03T09:49:27.157Z,7.10
2023-02-03T09:52:12.577Z,7.20
2023-02-03T09:54:56.188Z,7.24
2023-02-03T09:57:35.024Z,7.30
2023-02-03T10:00:30.162Z,7.30
2023-02-03T10:03:17.990Z,7.40
2023-02-03T10:06:23.243Z,7.40
2023-02-03T10:09:29.444Z,7.44
2023-02-03T10:12:40.031Z,7.50
2023-02-03T10:16:06.917Z,7.70
2023-02-03T10:18:52.915Z,7.88
2023-02-03T10:21:41.935Z,7.90
2023-02-03T10:24:28.096Z,8.00
2023-02-03T10:27:04.597Z,8.00
2023-02-03T10:29:47.133Z,8.10
2023-02-03T10:32:24.152Z,8.10
2023-02-03T10:35:00.388Z,8.20
2023-02-03T10:37:41.936Z,8.20
2023-02-03T10:40:23.552Z,8.20
2023-02-03T10:43:18.114Z,8.20
2023-02-03T10:45:54.714Z,8.20
2023-02-03T10:48:32.714Z,8.30
2023-02-03T10:51:14.751Z,8.40
2023-02-03T10:53:53.744Z,8.52
2023-02-03T10:56:35.284Z,8.70
2023-02-03T10:59:29.930Z,8.80
2023-02-03T11:02:14.570Z,8.90
2023-02-03T11:04:51.170Z,9.00
2023-02-03T11:07:35.695Z,9.10
2023-02-03T11:10:47.151Z,9.20
2023-02-03T11:13:28.507Z,9.30
2023-02-03T11:16:08.389Z,9.40
2023-02-03T11:18:57.887Z,9.40
2023-02-03T11:21:44.912Z,9.50
2023-02-03T11:24:27.029Z,9.50
2023-02-03T11:27:08.737Z,9.60
2023-02-03T11:29:50.431Z,9.70
2023-02-03T11:32:36.076Z,9.70
2023-02-03T11:35:24.338Z,9.80
2023-02-03T11:38:03.576Z,9.88
2023-02-03T11:40:41.809Z,9.90
2023-02-03T11:43:24.843Z,10.00
2023-02-03T11:46:08.092Z,10.00
2023-02-03T11:48:59.406Z,10.02
2023-02-03T11:51:48.519Z,10.10
2023-02-03T11:54:42.998Z,10.10
2023-02-03T11:57:41.267Z,10.20
2023-02-03T12:00:34.094Z,10.20
2023-02-03T12:04:16.081Z,10.30
2023-02-03T12:07:22.059Z,10.30
2023-02-03T12:10:11.505Z,10.40
2023-02-03T12:13:07.823Z,10.44
2023-02-03T12:16:18.336Z,10.50
2023-02-03T12:19:13.905Z,10.58
2023-02-03T12:21:59.344Z,10.60
2023-02-03T12:24:55.219Z,10.68
2023-02-03T12:27:50.142Z,10.70
2023-02-03T12:30:31.202Z,10.70
2023-02-03T12:33:23.657Z,10.70
2023-02-03T12:36:08.289Z,10.70
2023-02-03T12:38:53.009Z,10.70
2023-02-03T12:41:36.616Z,10.70
2023-02-03T12:44:23.085Z,10.70
2023-02-03T12:47:10.648Z,10.76
2023-02-03T12:49:53.730Z,10.80
2023-02-03T12:52:38.813Z,10.80
2023-02-03T12:55:30.959Z,10.80
2023-02-03T12:58:14.157Z,10.80
2023-02-03T13:00:59.870Z,10.80
2023-02-03T13:03:43.942Z,10.90
2023-02-03T13:06:29.556Z,10.90
2023-02-03T13:09:25.093Z,10.90
2023-02-03T13:12:11.414Z,10.82
2023-02-03T13:14:53.377Z,10.80
2023-02-03T13:17:34.420Z,10.80
2023-02-03T13:20:21.738Z,10.80
2023-02-03T13:22:57.557Z,10.72
2023-02-03T13:25:51.902Z,10.70
2023-02-03T13:28:51.358Z,10.70
2023-02-03T13:31:50.430Z,10.64
2023-02-03T13:35:08.130Z,10.60
2023-02-03T13:38:11.619Z,10.50
2023-02-03T13:41:02.322Z,10.50
2023-02-03T13:43:43.959Z,10.50
2023-02-03T13:46:32.059Z,10.50
2023-02-03T13:49:12.964Z,10.50
2023-02-03T13:51:53.567Z,10.60
2023-02-03T13:54:38.909Z,10.70
2023-02-03T13:57:34.706Z,10.74
2023-02-03T14:00:53.071Z,10.80
2023-02-03T14:03:49.532Z,10.90
2023-02-03T14:07:02.307Z,10.90
2023-02-03T14:10:08.757Z,10.90
2023-02-03T14:13:02.557Z,10.90
2023-02-03T14:15:40.021Z,10.80
2023-02-03T14:18:48.490Z,10.80
2023-02-03T14:21:27.653Z,10.70
2023-02-03T14:24:12.989Z,10.70
2023-02-03T14:26:52.746Z,10.60
2023-02-03T14:29:44.655Z,10.52
2023-02-03T14:32:21.992Z,10.50
2023-02-03T14:34:59.445Z,10.42
2023-02-03T14:37:38.298Z,10.40
2023-02-03T14:40:45.141Z,10.40
2023-02-03T14:43:46.262Z,10.42
2023-02-03T14:47:15.423Z,10.40
2023-02-03T14:50:24.700Z,10.42
2023-02-03T14:53:30.079Z,10.40
2023-02-03T14:56:25.172Z,10.40
2023-02-03T14:59:12.595Z,10.30
2023-02-03T15:02:21.550Z,10.20
2023-02-03T15:05:39.265Z,10.10
2023-02-03T15:08:53.315Z,10.00
2023-02-03T15:11:46.173Z,9.98
2023-02-03T15:14:32.997Z,9.90
2023-02-03T15:17:25.442Z,9.82
2023-02-03T15:20:02.530Z,9.80
2023-02-03T15:22:44.836Z,9.80
2023-02-03T15:25:28.748Z,9.80
2023-02-03T15:28:24.578Z,9.80
2023-02-03T15:31:09.412Z,9.80
2023-02-03T15:33:47.563Z,9.70
2023-02-03T15:36:29.002Z,9.70
2023-02-03T15:39:25.990Z,9.60
2023-02-03T15:42:07.199Z,9.50
2023-02-03T15:44:56.135Z,9.50
2023-02-03T15:47:42.085Z,9.40
2023-02-03T15:50:36.652Z,9.40
2023-02-03T15:53:26.220Z,9.40
2023-02-03T15:56:07.318Z,9.40
2023-02-03T15:58:52.846Z,9.40
2023-02-03T16:01:30.707Z,9.38
2023-02-03T16:04:14.821Z,9.30
2023-02-03T16:06:55.801Z,9.30
2023-02-03T16:09:42.310Z,9.30
2023-02-03T16:12:28.298Z,9.20
2023-02-03T16:15:07.013Z,9.20
2023-02-03T16:17:44.034Z,9.10
2023-02-03T16:20:33.546Z,9.00
2023-02-03T16:23:23.851Z,8.88
2023-02-03T16:26:36.453Z,8.80
2023-02-03T16:29:38.487Z,8.80
2023-02-03T16:32:43.588Z,8.70
2023-02-03T16:35:37.191Z,8.70
2023-02-03T16:38:39.400Z,8.70
2023-02-03T16:41:39.376Z,8.60
2023-02-03T16:44:34.310Z,8.60
2023-02-03T16:47:42.673Z,8.50
2023-02-03T16:50:42.357Z,8.40
2023-02-03T16:53:22.585Z,8.40
2023-02-03T16:56:01.286Z,8.30
2023-02-03T16:58:37.534Z,8.24
2023-02-03T17:01:15.833Z,8.12
2023-02-03T17:03:53.444Z,8.10
2023-02-03T17:06:29.968Z,8.10
2023-02-03T17:09:07.497Z,8.00
2023-02-03T17:11:44.710Z,7.90
2023-02-03T17:14:20.568Z,7.80
2023-02-03T17:16:57.359Z,7.70
2023-02-03T17:19:33.812Z,7.60
2023-02-03T17:22:10.595Z,7.60
2023-02-03T17:24:48.215Z,7.60
2023-02-03T17:27:25.137Z,7.60
2023-02-03T17:30:01.786Z,7.60
2023-02-03T17:32:38.687Z,7.60
2023-02-03T17:35:16.741Z,7.50
2023-02-03T17:37:53.389Z,7.50
2023-02-03T17:55:01.953Z,7.40
2023-02-03T17:57:41.749Z,7.44
2023-02-03T18:00:25.392Z,7.40
2023-02-03T18:03:02.596Z,7.30
2023-02-03T18:05:39.832Z,7.30
2023-02-03T18:08:20.303Z,7.20
2023-02-03T18:10:57.360Z,7.10
2023-02-03T18:13:34.503Z,7.10
2023-02-03T18:16:13.445Z,7.10
2023-02-03T18:18:49.249Z,7.10
2023-02-03T18:21:30.110Z,7.10
2023-02-03T18:24:07.242Z,7.10
2023-02-03T18:26:51.895Z,7.10
2023-02-03T18:29:29.034Z,7.00
2023-02-03T18:32:05.533Z,7.00
2023-02-03T18:34:44.178Z,6.90
2023-02-03T18:37:20.463Z,6.88
2023-02-03T18:39:57.828Z,6.80
2023-02-03T18:42:34.364Z,6.80
2023-02-03T18:45:14.025Z,6.80
2023-02-03T18:47:50.639Z,6.70
2023-02-03T18:50:26.955Z,6.70
2023-02-03T18:53:05.778Z,6.70
2023-02-03T18:55:45.544Z,6.60
2023-02-03T18:58:22.374Z,6.60
2023-02-03T19:00:59.203Z,6.50
2023-02-03T19:03:36.180Z,6.50
2023-02-03T19:06:18.774Z,6.48
2023-02-03T19:08:55.010Z,6.50
2023-02-03T19:11:35.162Z,6.44
2023-02-03T19:14:11.131Z,6.50
2023-02-03T19:16:50.809Z,6.50
2023-02-03T19:19:28.761Z,6.48
2023-02-03T19:22:05.642Z,6.40
2023-02-03T19:24:42.011Z,6.40
2023-02-03T19:27:18.817Z,6.26
2023-02-03T19:29:55.889Z,6.10
2023-02-03T19:32:33.215Z,6.10
2023-02-03T19:35:12.824Z,6.10
2023-02-03T19:37:50.169Z,6.20
2023-02-03T19:40:27.842Z,6.20
2023-02-03T19:43:05.054Z,6.10
2023-02-03T19:45:41.865Z,6.10
2023-02-03T19:48:19.121Z,6.10
2023-02-03T19:50:56.855Z,6.10
2023-02-03T19:53:33.876Z,6.08
2023-02-03T19:56:12.913Z,6.00
2023-02-03T19:58:52.731Z,5.90
2023-02-03T20:01:29.750Z,5.90
2023-02-03T20:04:07.573Z,6.00
2023-02-03T20:06:44.782Z,6.00
2023-02-03T20:09:21.264Z,6.00
2023-02-03T20:11:58.319Z,6.10
2023-02-03T20:14:35.108Z,6.10
2023-02-03T20:17:12.237Z,6.18
2023-02-03T20:19:49.089Z,6.20
2023-02-03T20:22:26.092Z,6.10
2023-02-03T20:25:03.264Z,6.10
2023-02-03T20:27:40.091Z,5.90
2023-02-03T20:30:20.844Z,5.80
2023-02-03T20:32:58.180Z,5.60
2023-02-03T20:35:35.192Z,5.54
2023-02-03T20:38:12.369Z,5.60
2023-02-03T20:40:49.508Z,5.60
2023-02-03T20:43:28.058Z,5.60
2023-02-03T20:46:04.996Z,5.60
2023-02-03T20:48:41.491Z,5.70
2023-02-03T20:51:21.339Z,5.70
2023-02-03T20:53:58.792Z,5.72
2023-02-03T20:56:37.096Z,5.80
2023-02-03T20:59:19.270Z,5.80
2023-02-03T21:01:55.873Z,5.80
2023-02-03T21:04:50.446Z,5.70
2023-02-03T21:07:27.202Z,5.70
2023-02-03T21:10:22.336Z,5.70
2023-02-03T21:12:59.600Z,5.60
2023-02-03T21:15:37.058Z,5.60
2023-02-03T21:18:36.153Z,5.60
2023-02-03T21:21:25.134Z,5.54
2023-02-03T21:24:02.593Z,5.50
2023-02-03T21:26:45.664Z,5.50
2023-02-03T21:29:29.572Z,5.50
2023-02-03T21:32:06.989Z,5.60
2023-02-03T21:34:46.980Z,5.60
2023-02-03T21:37:42.734Z,5.54
2023-02-03T21:40:35.000Z,5.50
2023-02-03T21:43:22.047Z,5.40
2023-02-03T21:45:59.027Z,5.24
2023-02-03T21:48:39.397Z,5.20
2023-02-03T21:51:25.028Z,5.10
2023-02-03T21:54:03.882Z,5.00
2023-02-03T21:56:46.415Z,5.00
2023-02-03T21:59:26.519Z,5.00
2023-02-03T22:02:03.766Z,5.00
2023-02-03T22:04:40.909Z,5.10
2023-02-03T22:07:29.271Z,5.10
2023-02-03T22:10:05.812Z,5.10
2023-02-03T22:12:43.224Z,5.00
2023-02-03T22:15:20.455Z,4.90
2023-02-03T22:17:58.044Z,4.80
2023-02-03T22:20:35.117Z,4.80
2023-02-03T22:23:12.625Z,4.80
2023-02-03T22:25:50.575Z,4.90
2023-02-03T22:28:26.953Z,5.00
2023-02-03T22:31:03.070Z,5.00
2023-02-03T22:33:40.486Z,5.10
2023-02-03T22:36:19.819Z,5.20
2023-02-03T22:38:57.164Z,5.10
2023-02-03T22:41:34.624Z,5.10
2023-02-03T22:44:16.364Z,5.02
2023-02-03T22:46:53.804Z,5.00
2023-02-03T22:49:31.407Z,5.00
2023-02-03T22:52:09.120Z,4.90
2023-02-03T22:54:46.533Z,4.90
2023-02-03T22:57:23.375Z,4.80
2023-02-03T23:00:00.425Z,4.78
2023-02-03T23:02:37.378Z,4.70
2023-02-03T23:05:15.984Z,4.60
2023-02-03T23:07:52.030Z,4.70
2023-02-03T23:10:33.804Z,4.70
2023-02-03T23:13:10.761Z,4.60
2023-02-03T23:15:47.690Z,4.60
2023-02-03T23:18:24.558Z,4.60
2023-02-03T23:21:01.956Z,4.56
2023-02-03T23:23:38.830Z,4.50
2023-02-03T23:26:15.652Z,4.50
2023-02-03T23:28:52.742Z,4.50
2023-02-03T23:31:28.249Z,4.54
2023-02-03T23:34:21.649Z,4.58
2023-02-03T23:37:01.670Z,4.60
2023-02-03T23:39:38.539Z,4.60
2023-02-03T23:42:14.845Z,4.70
2023-02-03T23:44:51.436Z,4.70
2023-02-03T23:47:27.952Z,4.70
2023-02-03T23:50:04.781Z,4.70
2023-02-03T23:52:41.973Z,4.70
2023-02-03T23:55:23.963Z,4.70
2023-02-03T23:58:01.538Z,4.70
